sensor_id;sensor_type;location;lat;lon;timestamp;pressure;altitude;pressure_sealevel;temperature;humidity
72798;BME280;61084;55.816;37.036;2023-05-01T00:00:55;98581.38;;;9.00;64.84
72798;BME280;61084;55.816;37.036;2023-05-01T00:03:21;98574.16;;;9.03;64.63
72798;BME280;61084;55.816;37.036;2023-05-01T00:05:46;98569.78;;;9.04;63.34
72798;BME280;61084;55.816;37.036;2023-05-01T00:08:13;98562.09;;;9.01;65.10
72798;BME280;61084;55.816;37.036;2023-05-01T00:10:38;98545.06;;;8.94;64.41
72798;BME280;61084;55.816;37.036;2023-05-01T00:13:04;98554.63;;;8.95;64.41
72798;BME280;61084;55.816;37.036;2023-05-01T00:15:31;98556.09;;;8.99;64.81
72798;BME280;61084;55.816;37.036;2023-05-01T00:17:57;98557.81;;;9.00;63.98
72798;BME280;61084;55.816;37.036;2023-05-01T00:20:27;98563.69;;;9.03;64.26
72798;BME280;61084;55.816;37.036;2023-05-01T00:22:53;98549.56;;;9.06;64.30
72798;BME280;61084;55.816;37.036;2023-05-01T00:25:19;98551.25;;;9.07;64.42
72798;BME280;61084;55.816;37.036;2023-05-01T00:27:46;98560.81;;;9.08;64.98
72798;BME280;61084;55.816;37.036;2023-05-01T00:30:12;98583.34;;;9.10;64.52
72798;BME280;61084;55.816;37.036;2023-05-01T00:32:39;98586.06;;;9.09;64.06
72798;BME280;61084;55.816;37.036;2023-05-01T00:35:05;98592.84;;;9.11;64.52
72798;BME280;61084;55.816;37.036;2023-05-01T00:37:31;98597.28;;;9.11;64.56
72798;BME280;61084;55.816;37.036;2023-05-01T00:39:57;98597.16;;;9.13;64.57
72798;BME280;61084;55.816;37.036;2023-05-01T00:42:22;98595.69;;;9.08;65.25
72798;BME280;61084;55.816;37.036;2023-05-01T00:44:49;98601.44;;;8.99;65.52
72798;BME280;61084;55.816;37.036;2023-05-01T00:47:14;98610.16;;;9.00;65.16
72798;BME280;61084;55.816;37.036;2023-05-01T00:49:45;98608.19;;;9.03;64.98
72798;BME280;61084;55.816;37.036;2023-05-01T00:52:12;98608.19;;;9.03;65.10
72798;BME280;61084;55.816;37.036;2023-05-01T00:54:38;98601.28;;;9.02;64.78
72798;BME280;61084;55.816;37.036;2023-05-01T00:57:04;98600.22;;;9.05;65.02
72798;BME280;61084;55.816;37.036;2023-05-01T00:59:31;98600.97;;;9.07;64.88
72798;BME280;61084;55.816;37.036;2023-05-01T01:01:57;98600.06;;;9.08;65.01
72798;BME280;61084;55.816;37.036;2023-05-01T01:04:22;98597.44;;;9.08;64.62
72798;BME280;61084;55.816;37.036;2023-05-01T01:06:56;98591.38;;;9.07;65.78
72798;BME280;61084;55.816;37.036;2023-05-01T01:15:01;98599.22;;;9.07;65.20
72798;BME280;61084;55.816;37.036;2023-05-01T01:17:41;98605.13;;;9.11;65.46
72798;BME280;61084;55.816;37.036;2023-05-01T01:23:10;98615.59;;;9.11;65.10
72798;BME280;61084;55.816;37.036;2023-05-01T01:26:02;98613.81;;;9.11;65.18
72798;BME280;61084;55.816;37.036;2023-05-01T01:31:19;98600.63;;;9.13;64.79
72798;BME280;61084;55.816;37.036;2023-05-01T01:36:36;98583.34;;;9.10;65.00
72798;BME280;61084;55.816;37.036;2023-05-01T01:39:08;98583.44;;;9.09;65.16
72798;BME280;61084;55.816;37.036;2023-05-01T01:41:36;98580.72;;;9.10;65.02
72798;BME280;61084;55.816;37.036;2023-05-01T01:44:11;98565.00;;;9.10;65.44
72798;BME280;61084;55.816;37.036;2023-05-01T01:46:40;98556.41;;;9.08;65.27
72798;BME280;61084;55.816;37.036;2023-05-01T01:49:12;98559.78;;;9.10;64.67
72798;BME280;61084;55.816;37.036;2023-05-01T01:51:41;98564.44;;;9.05;65.85
72798;BME280;61084;55.816;37.036;2023-05-01T01:54:10;98561.34;;;8.99;65.21
72798;BME280;61084;55.816;37.036;2023-05-01T01:56:39;98558.72;;;8.99;65.63
72798;BME280;61084;55.816;37.036;2023-05-01T01:59:08;98550.03;;;8.98;65.34
72798;BME280;61084;55.816;37.036;2023-05-01T02:01:38;98549.28;;;8.96;65.77
72798;BME280;61084;55.816;37.036;2023-05-01T02:04:06;98547.78;;;8.92;65.32
72798;BME280;61084;55.816;37.036;2023-05-01T02:06:36;98544.41;;;8.90;66.47
72798;BME280;61084;55.816;37.036;2023-05-01T02:09:05;98549.66;;;8.90;66.52
72798;BME280;61084;55.816;37.036;2023-05-01T02:11:34;98534.13;;;8.87;66.40
72798;BME280;61084;55.816;37.036;2023-05-01T02:14:03;98531.50;;;8.87;66.04
72798;BME280;61084;55.816;37.036;2023-05-01T02:16:32;98529.56;;;8.91;65.49
72798;BME280;61084;55.816;37.036;2023-05-01T02:19:01;98538.25;;;8.91;65.72
72798;BME280;61084;55.816;37.036;2023-05-01T02:21:29;98541.81;;;8.90;65.91
72798;BME280;61084;55.816;37.036;2023-05-01T02:23:57;98547.78;;;8.92;65.84
72798;BME280;61084;55.816;37.036;2023-05-01T02:26:25;98539.84;;;8.94;66.15
72798;BME280;61084;55.816;37.036;2023-05-01T02:28:53;98532.81;;;8.94;65.44
72798;BME280;61084;55.816;37.036;2023-05-01T02:31:19;98540.50;;;8.97;65.83
72798;BME280;61084;55.816;37.036;2023-05-01T02:33:47;98547.34;;;9.00;66.27
72798;BME280;61084;55.816;37.036;2023-05-01T02:36:13;98547.41;;;8.98;65.44
72798;BME280;61084;55.816;37.036;2023-05-01T02:38:40;98545.75;;;8.97;66.22
72798;BME280;61084;55.816;37.036;2023-05-01T02:41:07;98545.75;;;8.97;66.42
72798;BME280;61084;55.816;37.036;2023-05-01T02:43:36;98540.41;;;8.99;67.06
72798;BME280;61084;55.816;37.036;2023-05-01T02:46:02;98541.34;;;8.98;67.85
72798;BME280;61084;55.816;37.036;2023-05-01T02:48:30;98543.13;;;8.97;66.40
72798;BME280;61084;55.816;37.036;2023-05-01T02:50:57;98563.97;;;8.99;66.43
72798;BME280;61084;55.816;37.036;2023-05-01T02:53:23;98565.72;;;8.98;66.30
72798;BME280;61084;55.816;37.036;2023-05-01T02:55:53;98577.06;;;8.99;66.31
72798;BME280;61084;55.816;37.036;2023-05-01T02:58:20;98590.81;;;9.02;66.32
72798;BME280;61084;55.816;37.036;2023-05-01T03:00:47;98594.09;;;9.06;66.29
72798;BME280;61084;55.816;37.036;2023-05-01T03:03:14;98589.59;;;9.08;66.22
72798;BME280;61084;55.816;37.036;2023-05-01T03:05:41;98591.94;;;9.13;66.34
72798;BME280;61084;55.816;37.036;2023-05-01T03:08:08;98591.84;;;9.14;66.08
72798;BME280;61084;55.816;37.036;2023-05-01T03:10:35;98598.66;;;9.17;66.08
72798;BME280;61084;55.816;37.036;2023-05-01T03:13:03;98597.75;;;9.18;65.84
72798;BME280;61084;55.816;37.036;2023-05-01T03:15:29;98596.16;;;9.15;65.70
72798;BME280;61084;55.816;37.036;2023-05-01T03:17:55;98593.34;;;9.18;65.82
72798;BME280;61084;55.816;37.036;2023-05-01T03:20:21;98594.81;;;9.22;65.93
72798;BME280;61084;55.816;37.036;2023-05-01T03:22:47;98587.66;;;9.26;65.85
72798;BME280;61084;55.816;37.036;2023-05-01T03:25:13;98598.75;;;9.29;65.52
72798;BME280;61084;55.816;37.036;2023-05-01T03:27:38;98592.59;;;9.30;65.46
72798;BME280;61084;55.816;37.036;2023-05-01T03:30:05;98586.53;;;9.30;65.54
72798;BME280;61084;55.816;37.036;2023-05-01T03:32:36;98585.78;;;9.28;65.87
72798;BME280;61084;55.816;37.036;2023-05-01T03:35:03;98576.97;;;9.29;65.77
72798;BME280;61084;55.816;37.036;2023-05-01T03:37:29;98584.75;;;9.30;66.13
72798;BME280;61084;55.816;37.036;2023-05-01T03:39:55;98577.75;;;9.31;65.63
72798;BME280;61084;55.816;37.036;2023-05-01T03:42:50;98587.91;;;9.35;65.38
72798;BME280;61084;55.816;37.036;2023-05-01T03:45:20;98594.84;;;9.36;65.44
72798;BME280;61084;55.816;37.036;2023-05-01T03:47:45;98592.13;;;9.38;65.86
72798;BME280;61084;55.816;37.036;2023-05-01T03:50:12;98592.88;;;9.40;66.00
72798;BME280;61084;55.816;37.036;2023-05-01T03:52:40;98590.19;;;9.41;65.61
72798;BME280;61084;55.816;37.036;2023-05-01T03:55:08;98583.13;;;9.42;65.85
72798;BME280;61084;55.816;37.036;2023-05-01T03:57:39;98601.19;;;9.46;65.63
72798;BME280;61084;55.816;37.036;2023-05-01T04:00:06;98596.63;;;9.50;65.79
72798;BME280;61084;55.816;37.036;2023-05-01T04:02:41;98596.63;;;9.50;65.24
72798;BME280;61084;55.816;37.036;2023-05-01T04:05:10;98603.91;;;9.45;65.57
72798;BME280;61084;55.816;37.036;2023-05-01T04:07:38;98610.38;;;9.39;65.54
72798;BME280;61084;55.816;37.036;2023-05-01T04:10:05;98605.44;;;9.35;65.32
72798;BME280;61084;55.816;37.036;2023-05-01T04:12:32;98606.34;;;9.34;65.47
72798;BME280;61084;55.816;37.036;2023-05-01T04:14:58;98612.53;;;9.33;66.24
72798;BME280;61084;55.816;37.036;2023-05-01T04:17:24;98602.88;;;9.33;65.63
72798;BME280;61084;55.816;37.036;2023-05-01T04:19:50;98601.00;;;9.35;66.07
72798;BME280;61084;55.816;37.036;2023-05-01T04:22:16;98606.19;;;9.37;65.90
72798;BME280;61084;55.816;37.036;2023-05-01T04:24:42;98601.84;;;9.36;65.60
72798;BME280;61084;55.816;37.036;2023-05-01T04:27:07;98594.75;;;9.38;65.85
72798;BME280;61084;55.816;37.036;2023-05-01T04:29:33;98600.84;;;9.38;65.53
72798;BME280;61084;55.816;37.036;2023-05-01T04:31:59;98595.50;;;9.40;65.52
72798;BME280;61084;55.816;37.036;2023-05-01T04:34:27;98600.56;;;9.43;65.85
72798;BME280;61084;55.816;37.036;2023-05-01T04:36:54;98603.81;;;9.46;65.68
72798;BME280;61084;55.816;37.036;2023-05-01T04:39:22;98609.91;;;9.47;66.22
72798;BME280;61084;55.816;37.036;2023-05-01T04:41:48;98610.66;;;9.49;65.90
72798;BME280;61084;55.816;37.036;2023-05-01T04:44:14;98621.81;;;9.52;66.11
72798;BME280;61084;55.816;37.036;2023-05-01T04:46:41;98630.31;;;9.56;65.96
72798;BME280;61084;55.816;37.036;2023-05-01T04:49:06;98627.69;;;9.56;66.46
72798;BME280;61084;55.816;37.036;2023-05-01T04:51:33;98625.06;;;9.56;66.24
72798;BME280;61084;55.816;37.036;2023-05-01T04:54:00;98630.19;;;9.57;66.35
72798;BME280;61084;55.816;37.036;2023-05-01T04:56:27;98639.75;;;9.58;66.17
72798;BME280;61084;55.816;37.036;2023-05-01T04:58:58;98635.25;;;9.60;66.10
72798;BME280;61084;55.816;37.036;2023-05-01T05:01:26;98647.13;;;9.66;65.69
72798;BME280;61084;55.816;37.036;2023-05-01T05:03:52;98643.31;;;9.71;66.00
72798;BME280;61084;55.816;37.036;2023-05-01T05:06:18;98636.31;;;9.72;65.34
72798;BME280;61084;55.816;37.036;2023-05-01T05:08:44;98633.69;;;9.72;65.91
72798;BME280;61084;55.816;37.036;2023-05-01T05:11:10;98627.31;;;9.76;66.30
72798;BME280;61084;55.816;37.036;2023-05-01T05:13:47;98631.53;;;9.78;65.86
72798;BME280;61084;55.816;37.036;2023-05-01T05:16:13;98625.44;;;9.78;66.40
72798;BME280;61084;55.816;37.036;2023-05-01T05:18:40;98616.53;;;9.80;66.35
72798;BME280;61084;55.816;37.036;2023-05-01T05:21:07;98627.66;;;9.84;66.01
72798;BME280;61084;55.816;37.036;2023-05-01T05:23:37;98622.13;;;9.88;66.23
72798;BME280;61084;55.816;37.036;2023-05-01T05:26:05;98620.38;;;9.89;66.20
72798;BME280;61084;55.816;37.036;2023-05-01T05:28:30;98626.44;;;9.89;65.69
72798;BME280;61084;55.816;37.036;2023-05-01T05:30:57;98619.34;;;9.92;66.11
72798;BME280;61084;55.816;37.036;2023-05-01T05:33:24;98624.66;;;9.90;65.17
72798;BME280;61084;55.816;37.036;2023-05-01T05:35:51;98631.50;;;9.93;65.85
72798;BME280;61084;55.816;37.036;2023-05-01T05:38:19;98634.13;;;9.93;65.78
72798;BME280;61084;55.816;37.036;2023-05-01T05:40:49;98632.91;;;9.98;65.61
72798;BME280;61084;55.816;37.036;2023-05-01T05:46:19;98653.66;;;10.01;65.76
72798;BME280;61084;55.816;37.036;2023-05-01T05:49:06;98646.09;;;9.97;65.86
72798;BME280;61084;55.816;37.036;2023-05-01T05:52:08;98650.41;;;9.98;66.42
72798;BME280;61084;55.816;37.036;2023-05-01T05:54:36;98653.88;;;9.98;67.07
72798;BME280;61084;55.816;37.036;2023-05-01T05:57:03;98657.03;;;10.03;66.98
72798;BME280;61084;55.816;37.036;2023-05-01T05:59:30;98656.75;;;10.08;66.96
72798;BME280;61084;55.816;37.036;2023-05-01T06:01:56;98656.59;;;10.11;64.90
72798;BME280;61084;55.816;37.036;2023-05-01T06:04:22;98667.72;;;10.14;64.97
72798;BME280;61084;55.816;37.036;2023-05-01T06:06:51;98668.47;;;10.16;65.61
72798;BME280;61084;55.816;37.036;2023-05-01T06:09:17;98670.81;;;10.21;64.23
72798;BME280;61084;55.816;37.036;2023-05-01T06:12:02;98678.56;;;10.22;64.20
72798;BME280;61084;55.816;37.036;2023-05-01T06:14:31;98681.84;;;10.26;64.59
72798;BME280;61084;55.816;37.036;2023-05-01T06:16:57;98689.72;;;10.26;63.87
72798;BME280;61084;55.816;37.036;2023-05-01T06:19:22;98693.09;;;10.28;64.79
72798;BME280;61084;55.816;37.036;2023-05-01T06:21:52;98694.47;;;10.33;64.20
72798;BME280;61084;55.816;37.036;2023-05-01T06:24:18;98690.72;;;10.37;63.34
72798;BME280;61084;55.816;37.036;2023-05-01T06:26:47;98686.19;;;10.53;63.26
72798;BME280;61084;55.816;37.036;2023-05-01T06:29:12;98681.72;;;10.68;63.50
72798;BME280;61084;55.816;37.036;2023-05-01T06:31:38;98685.34;;;10.80;63.24
72798;BME280;61084;55.816;37.036;2023-05-01T06:34:04;98678.75;;;10.87;62.71
72798;BME280;61084;55.816;37.036;2023-05-01T06:36:50;98697.31;;;10.84;61.84
72798;BME280;61084;55.816;37.036;2023-05-01T06:39:16;98702.13;;;10.77;61.68
72798;BME280;61084;55.816;37.036;2023-05-01T06:41:45;98702.63;;;10.70;61.19
72798;BME280;61084;55.816;37.036;2023-05-01T06:44:12;98694.25;;;10.77;61.92
72798;BME280;61084;55.816;37.036;2023-05-01T06:46:38;98700.78;;;10.84;61.91
72798;BME280;61084;55.816;37.036;2023-05-01T06:49:05;98709.97;;;10.91;62.15
72798;BME280;61084;55.816;37.036;2023-05-01T06:51:31;98704.31;;;10.97;60.97
72798;BME280;61084;55.816;37.036;2023-05-01T06:53:57;98707.84;;;10.96;61.15
72798;BME280;61084;55.816;37.036;2023-05-01T06:56:23;98706.19;;;10.95;60.91
72798;BME280;61084;55.816;37.036;2023-05-01T06:58:49;98709.16;;;11.03;60.58
72798;BME280;61084;55.816;37.036;2023-05-01T07:01:15;98709.69;;;11.08;60.70
72798;BME280;61084;55.816;37.036;2023-05-01T07:03:42;98717.47;;;11.10;60.47
72798;BME280;61084;55.816;37.036;2023-05-01T07:06:08;98725.16;;;11.13;60.53
72798;BME280;61084;55.816;37.036;2023-05-01T07:08:34;98725.78;;;11.16;60.11
72798;BME280;61084;55.816;37.036;2023-05-01T07:11:00;98734.50;;;11.17;60.26
72798;BME280;61084;55.816;37.036;2023-05-01T07:13:26;98739.56;;;11.20;60.34
72798;BME280;61084;55.816;37.036;2023-05-01T07:15:52;98741.25;;;11.21;59.95
72798;BME280;61084;55.816;37.036;2023-05-01T07:18:18;98737.47;;;11.25;59.99
72798;BME280;61084;55.816;37.036;2023-05-01T07:20:43;98739.25;;;11.24;59.57
72798;BME280;61084;55.816;37.036;2023-05-01T07:23:10;98736.97;;;11.32;59.93
72798;BME280;61084;55.816;37.036;2023-05-01T07:25:36;98737.91;;;11.31;59.95
72798;BME280;61084;55.816;37.036;2023-05-01T07:28:02;98749.59;;;11.40;59.92
72798;BME280;61084;55.816;37.036;2023-05-01T07:30:30;98744.75;;;11.34;59.35
72798;BME280;61084;55.816;37.036;2023-05-01T07:32:57;98745.38;;;11.37;60.20
72798;BME280;61084;55.816;37.036;2023-05-01T07:35:23;98752.03;;;11.43;59.36
72798;BME280;61084;55.816;37.036;2023-05-01T07:37:50;98739.38;;;11.35;59.40
72798;BME280;61084;55.816;37.036;2023-05-01T07:40:17;98744.56;;;11.37;59.09
72798;BME280;61084;55.816;37.036;2023-05-01T07:42:42;98753.16;;;11.39;59.87
72798;BME280;61084;55.816;37.036;2023-05-01T07:45:09;98745.28;;;11.39;58.92
72798;BME280;61084;55.816;37.036;2023-05-01T07:47:34;98752.88;;;11.44;59.05
72798;BME280;61084;55.816;37.036;2023-05-01T07:50:01;98751.59;;;11.49;59.08
72798;BME280;61084;55.816;37.036;2023-05-01T07:52:29;98768.00;;;11.53;58.65
72798;BME280;61084;55.816;37.036;2023-05-01T07:54:55;98764.84;;;11.48;58.04
72798;BME280;61084;55.816;37.036;2023-05-01T07:57:21;98790.09;;;11.50;58.24
72798;BME280;61084;55.816;37.036;2023-05-01T07:59:54;98781.66;;;11.45;58.54
72798;BME280;61084;55.816;37.036;2023-05-01T08:02:22;98781.66;;;11.45;57.97
72798;BME280;61084;55.816;37.036;2023-05-01T08:04:48;98785.88;;;11.48;58.24
72798;BME280;61084;55.816;37.036;2023-05-01T08:07:14;98786.19;;;11.56;57.92
72798;BME280;61084;55.816;37.036;2023-05-01T08:09:58;98804.19;;;11.62;57.71
72798;BME280;61084;55.816;37.036;2023-05-01T08:12:25;98800.75;;;11.61;57.44
72798;BME280;61084;55.816;37.036;2023-05-01T08:14:52;98801.94;;;11.70;57.76
72798;BME280;61084;55.816;37.036;2023-05-01T08:17:17;98810.56;;;11.72;57.05
72798;BME280;61084;55.816;37.036;2023-05-01T08:19:43;98813.28;;;11.70;57.17
72798;BME280;61084;55.816;37.036;2023-05-01T08:22:12;98819.81;;;11.77;57.31
72798;BME280;61084;55.816;37.036;2023-05-01T08:24:38;98826.66;;;11.80;57.57
72798;BME280;61084;55.816;37.036;2023-05-01T08:27:05;98833.28;;;11.85;57.08
72798;BME280;61084;55.816;37.036;2023-05-01T08:29:31;98829.19;;;11.81;56.57
72798;BME280;61084;55.816;37.036;2023-05-01T08:31:57;98830.66;;;11.85;57.18
72798;BME280;61084;55.816;37.036;2023-05-01T08:34:23;98839.09;;;11.90;56.81
72798;BME280;61084;55.816;37.036;2023-05-01T08:36:49;98837.94;;;11.94;57.21
72798;BME280;61084;55.816;37.036;2023-05-01T08:39:15;98841.22;;;11.98;56.47
72798;BME280;61084;55.816;37.036;2023-05-01T08:41:45;98843.13;;;11.96;56.15
72798;BME280;61084;55.816;37.036;2023-05-01T08:44:14;98849.50;;;11.92;56.19
72798;BME280;61084;55.816;37.036;2023-05-01T08:49:32;98858.88;;;11.96;56.00
72798;BME280;61084;55.816;37.036;2023-05-01T08:52:00;98855.91;;;11.88;56.06
72798;BME280;61084;55.816;37.036;2023-05-01T08:54:28;98861.28;;;11.86;55.95
72798;BME280;61084;55.816;37.036;2023-05-01T08:56:56;98869.59;;;11.80;55.75
72798;BME280;61084;55.816;37.036;2023-05-01T08:59:27;98877.78;;;11.76;55.84
72798;BME280;61084;55.816;37.036;2023-05-01T09:01:55;98874.41;;;11.74;56.61
72798;BME280;61084;55.816;37.036;2023-05-01T09:04:23;98882.38;;;11.72;55.60
72798;BME280;61084;55.816;37.036;2023-05-01T09:06:49;98888.53;;;11.59;56.33
72798;BME280;61084;55.816;37.036;2023-05-01T09:09:15;98884.31;;;11.56;56.43
72798;BME280;61084;55.816;37.036;2023-05-01T09:11:43;98896.59;;;11.56;56.67
72798;BME280;61084;55.816;37.036;2023-05-01T09:14:09;98898.47;;;11.54;56.90
72798;BME280;61084;55.816;37.036;2023-05-01T09:16:35;98903.63;;;11.55;56.84
72798;BME280;61084;55.816;37.036;2023-05-01T09:19:01;98917.28;;;11.48;56.64
72798;BME280;61084;55.816;37.036;2023-05-01T09:21:27;98915.81;;;11.29;57.01
72798;BME280;61084;55.816;37.036;2023-05-01T09:23:56;98927.66;;;11.22;57.08
72798;BME280;61084;55.816;37.036;2023-05-01T09:26:21;98929.47;;;11.22;57.21
72798;BME280;61084;55.816;37.036;2023-05-01T09:28:48;98934.78;;;11.20;57.38
72798;BME280;61084;55.816;37.036;2023-05-01T09:31:23;98933.59;;;11.12;57.20
72798;BME280;61084;55.816;37.036;2023-05-01T09:34:01;98951.16;;;10.97;57.14
72798;BME280;61084;55.816;37.036;2023-05-01T09:36:29;98943.53;;;10.93;56.90
72798;BME280;61084;55.816;37.036;2023-05-01T09:38:59;98948.72;;;10.80;57.20
72798;BME280;61084;55.816;37.036;2023-05-01T09:41:26;98951.41;;;10.65;57.75
72798;BME280;61084;55.816;37.036;2023-05-01T09:44:16;98961.13;;;10.48;56.94
72798;BME280;61084;55.816;37.036;2023-05-01T09:46:43;98973.38;;;10.34;57.25
72798;BME280;61084;55.816;37.036;2023-05-01T09:49:10;98964.00;;;10.30;57.41
72798;BME280;61084;55.816;37.036;2023-05-01T09:51:35;98969.03;;;10.19;57.98
72798;BME280;61084;55.816;37.036;2023-05-01T09:54:02;98973.88;;;10.11;58.00
72798;BME280;61084;55.816;37.036;2023-05-01T09:56:30;98975.22;;;10.02;57.85
72798;BME280;61084;55.816;37.036;2023-05-01T09:59:16;98983.91;;;10.03;58.23
72798;BME280;61084;55.816;37.036;2023-05-01T10:01:45;98979.72;;;10.00;58.53
72798;BME280;61084;55.816;37.036;2023-05-01T10:04:11;98984.47;;;9.94;58.15
72798;BME280;61084;55.816;37.036;2023-05-01T10:06:56;99000.72;;;9.84;58.50
72798;BME280;61084;55.816;37.036;2023-05-01T10:09:28;99012.91;;;9.70;57.88
72798;BME280;61084;55.816;37.036;2023-05-01T10:11:55;99003.94;;;9.58;58.52
72798;BME280;61084;55.816;37.036;2023-05-01T10:14:22;99004.94;;;9.56;58.22
72798;BME280;61084;55.816;37.036;2023-05-01T10:16:52;99007.91;;;9.50;58.48
72798;BME280;61084;55.816;37.036;2023-05-01T10:19:19;99005.78;;;9.41;58.43
72798;BME280;61084;55.816;37.036;2023-05-01T10:21:45;99012.28;;;9.34;58.52
72798;BME280;61084;55.816;37.036;2023-05-01T10:24:29;99011.00;;;9.25;58.39
72798;BME280;61084;55.816;37.036;2023-05-01T10:26:56;99021.72;;;9.21;58.70
72798;BME280;61084;55.816;37.036;2023-05-01T10:29:23;99031.53;;;9.17;59.48
72798;BME280;61084;55.816;37.036;2023-05-01T10:31:49;99029.25;;;9.11;59.15
72798;BME280;61084;55.816;37.036;2023-05-01T10:34:17;99031.72;;;8.97;58.89
72798;BME280;61084;55.816;37.036;2023-05-01T10:36:51;99046.81;;;8.92;58.88
72798;BME280;61084;55.816;37.036;2023-05-01T10:39:33;99045.28;;;8.88;58.96
72798;BME280;61084;55.816;37.036;2023-05-01T10:42:07;99056.06;;;8.82;59.54
72798;BME280;61084;55.816;37.036;2023-05-01T10:44:36;99056.84;;;8.84;59.13
72798;BME280;61084;55.816;37.036;2023-05-01T10:50:09;99061.16;;;8.85;59.86
72798;BME280;61084;55.816;37.036;2023-05-01T10:55:37;99073.72;;;8.78;59.91
72798;BME280;61084;55.816;37.036;2023-05-01T10:58:04;99074.72;;;8.76;60.75
72798;BME280;61084;55.816;37.036;2023-05-01T11:00:30;99071.47;;;8.71;61.05
72798;BME280;61084;55.816;37.036;2023-05-01T11:08:43;99088.72;;;8.58;59.98
72798;BME280;61084;55.816;37.036;2023-05-01T11:19:08;99108.47;;;8.46;61.35
72798;BME280;61084;55.816;37.036;2023-05-01T11:21:35;99111.06;;;8.46;62.84
72798;BME280;61084;55.816;37.036;2023-05-01T11:24:03;99114.31;;;8.51;64.06
72798;BME280;61084;55.816;37.036;2023-05-01T11:26:47;99115.41;;;8.47;62.17
72798;BME280;61084;55.816;37.036;2023-05-01T11:31:59;99121.00;;;8.40;62.59
72798;BME280;61084;55.816;37.036;2023-05-01T11:34:25;99125.22;;;8.42;61.66
72798;BME280;61084;55.816;37.036;2023-05-01T11:36:52;99133.50;;;8.33;61.45
72798;BME280;61084;55.816;37.036;2023-05-01T11:39:18;99136.28;;;8.30;61.79
72798;BME280;61084;55.816;37.036;2023-05-01T11:41:44;99128.09;;;8.19;62.64
72798;BME280;61084;55.816;37.036;2023-05-01T11:44:13;99136.28;;;8.11;61.19
72798;BME280;61084;55.816;37.036;2023-05-01T11:46:40;99161.72;;;8.08;61.78
72798;BME280;61084;55.816;37.036;2023-05-01T11:49:06;99155.06;;;8.01;63.87
72798;BME280;61084;55.816;37.036;2023-05-01T11:51:34;99154.16;;;8.02;63.00
72798;BME280;61084;55.816;37.036;2023-05-01T11:54:05;99159.88;;;8.10;62.25
72798;BME280;61084;55.816;37.036;2023-05-01T11:56:33;99162.38;;;8.13;62.47
72798;BME280;61084;55.816;37.036;2023-05-01T11:59:11;99158.13;;;8.10;63.63
72798;BME280;61084;55.816;37.036;2023-05-01T12:01:39;99157.13;;;8.13;63.07
72798;BME280;61084;55.816;37.036;2023-05-01T12:04:06;99164.13;;;8.12;61.90
72798;BME280;61084;55.816;37.036;2023-05-01T12:06:40;99174.56;;;8.12;63.31
72798;BME280;61084;55.816;37.036;2023-05-01T12:09:23;99176.97;;;8.17;62.79
72798;BME280;61084;55.816;37.036;2023-05-01T12:11:51;99173.13;;;8.25;63.33
72798;BME280;61084;55.816;37.036;2023-05-01T12:14:17;99185.97;;;8.30;62.67
72798;BME280;61084;55.816;37.036;2023-05-01T12:16:44;99186.75;;;8.32;62.94
72798;BME280;61084;55.816;37.036;2023-05-01T12:19:12;99182.78;;;8.42;62.72
72798;BME280;61084;55.816;37.036;2023-05-01T12:21:38;99185.25;;;8.45;62.70
72798;BME280;61084;55.816;37.036;2023-05-01T12:26:34;99190.38;;;8.65;62.90
72798;BME280;61084;55.816;37.036;2023-05-01T12:29:03;99193.00;;;8.65;62.02
72798;BME280;61084;55.816;37.036;2023-05-01T12:31:29;99196.44;;;8.66;62.86
72798;BME280;61084;55.816;37.036;2023-05-01T12:33:57;99207.53;;;8.71;63.79
72798;BME280;61084;55.816;37.036;2023-05-01T12:36:51;99210.00;;;8.74;62.82
72798;BME280;61084;55.816;37.036;2023-05-01T12:42:03;99208.63;;;8.84;63.22
72798;BME280;61084;55.816;37.036;2023-05-01T12:44:35;99213.66;;;8.88;61.61
72798;BME280;61084;55.816;37.036;2023-05-01T12:47:03;99213.00;;;8.83;61.75
72798;BME280;61084;55.816;37.036;2023-05-01T12:49:30;99220.03;;;8.83;62.10
72798;BME280;61084;55.816;37.036;2023-05-01T12:52:14;99218.41;;;8.80;63.22
72798;BME280;61084;55.816;37.036;2023-05-01T12:54:42;99211.47;;;8.79;61.63
72798;BME280;61084;55.816;37.036;2023-05-01T12:57:10;99209.41;;;8.86;62.03
72798;BME280;61084;55.816;37.036;2023-05-01T12:59:40;99216.34;;;8.87;61.46
72798;BME280;61084;55.816;37.036;2023-05-01T13:02:14;99215.91;;;8.96;62.16
72798;BME280;61084;55.816;37.036;2023-05-01T13:04:45;99222.28;;;9.07;61.18
72798;BME280;61084;55.816;37.036;2023-05-01T13:07:17;99216.91;;;9.10;60.52
72798;BME280;61084;55.816;37.036;2023-05-01T13:09:57;99222.81;;;9.14;60.15
72798;BME280;61084;55.816;37.036;2023-05-01T13:12:25;99223.44;;;9.19;60.58
72798;BME280;61084;55.816;37.036;2023-05-01T13:14:52;99223.53;;;9.18;60.25
72798;BME280;61084;55.816;37.036;2023-05-01T13:17:36;99235.06;;;9.13;61.07
72798;BME280;61084;55.816;37.036;2023-05-01T13:20:03;99229.00;;;9.13;60.35
72798;BME280;61084;55.816;37.036;2023-05-01T13:22:34;99235.84;;;9.16;60.52
72798;BME280;61084;55.816;37.036;2023-05-01T13:25:10;99233.16;;;9.17;60.65
72798;BME280;61084;55.816;37.036;2023-05-01T13:27:39;99241.59;;;9.22;60.03
72798;BME280;61084;55.816;37.036;2023-05-01T13:30:06;99237.44;;;9.18;59.65
72798;BME280;61084;55.816;37.036;2023-05-01T13:32:32;99240.56;;;9.26;60.84
72798;BME280;61084;55.816;37.036;2023-05-01T13:35:00;99243.94;;;9.28;60.02
72798;BME280;61084;55.816;37.036;2023-05-01T13:37:26;99249.78;;;9.33;59.97
72798;BME280;61084;55.816;37.036;2023-05-01T13:39:56;99259.19;;;9.37;59.94
72798;BME280;61084;55.816;37.036;2023-05-01T13:42:24;99258.34;;;9.37;58.87
72798;BME280;61084;55.816;37.036;2023-05-01T13:45:09;99266.03;;;9.40;59.41
72798;BME280;61084;55.816;37.036;2023-05-01T13:47:38;99271.03;;;9.44;59.56
72798;BME280;61084;55.816;37.036;2023-05-01T13:50:08;99268.13;;;9.50;58.73
72798;BME280;61084;55.816;37.036;2023-05-01T13:52:41;99273.59;;;9.46;58.89